sensor_id;sensor_type;location;lat;lon;timestamp;pressure;altitude;pressure_sealevel;temperature;humidity
6345;BME280;3205;42.666;23.264;2024-02-26T00:01:02;93929.88;;;8.16;100.00
6345;BME280;3205;42.666;23.264;2024-02-26T00:03:28;93928.00;;;8.16;100.00
6345;BME280;3205;42.666;23.264;2024-02-26T00:05:54;93925.81;;;8.18;100.00
6345;BME280;3205;42.666;23.264;2024-02-26T00:08:21;93924.13;;;8.14;100.00
6345;BME280;3205;42.666;23.264;2024-02-26T00:10:48;93924.47;;;8.12;100.00
6345;BME280;3205;42.666;23.264;2024-02-26T00:13:15;93925.72;;;8.15;100.00
6345;BME280;3205;42.666;23.264;2024-02-26T00:15:41;93923.69;;;8.12;100.00
6345;BME280;3205;42.666;23.264;2024-02-26T00:18:07;93930.50;;;8.13;100.00
6345;BME280;3205;42.666;23.264;2024-02-26T00:20:34;93930.19;;;8.14;100.00
6345;BME280;3205;42.666;23.264;2024-02-26T00:23:04;93928.78;;;8.29;100.00
6345;BME280;3205;42.666;23.264;2024-02-26T00:25:30;93925.59;;;8.35;100.00
6345;BME280;3205;42.666;23.264;2024-02-26T00:27:56;93923.28;;;8.46;100.00
6345;BME280;3205;42.666;23.264;2024-02-26T00:30:23;93913.41;;;8.55;100.00
6345;BME280;3205;42.666;23.264;2024-02-26T00:32:50;93914.19;;;8.55;100.00
6345;BME280;3205;42.666;23.264;2024-02-26T00:35:16;93916.59;;;8.60;100.00
6345;BME280;3205;42.666;23.264;2024-02-26T00:37:46;93911.75;;;8.62;100.00
6345;BME280;3205;42.666;23.264;2024-02-26T00:40:12;93898.78;;;8.69;100.00
6345;BME280;3205;42.666;23.264;2024-02-26T00:42:38;93897.47;;;8.75;100.00
6345;BME280;3205;42.666;23.264;2024-02-26T00:45:11;93897.34;;;8.72;100.00
6345;BME280;3205;42.666;23.264;2024-02-26T00:47:38;93899.25;;;8.71;100.00
6345;BME280;3205;42.666;23.264;2024-02-26T00:50:07;93891.69;;;8.70;100.00
6345;BME280;3205;42.666;23.264;2024-02-26T00:52:34;93898.03;;;8.69;100.00
6345;BME280;3205;42.666;23.264;2024-02-26T00:55:00;93892.19;;;8.75;100.00
6345;BME280;3205;42.666;23.264;2024-02-26T00:57:26;93883.28;;;8.80;100.00
6345;BME280;3205;42.666;23.264;2024-02-26T00:59:52;93889.75;;;8.82;100.00
6345;BME280;3205;42.666;23.264;2024-02-26T01:02:20;93884.94;;;8.84;100.00
6345;BME280;3205;42.666;23.264;2024-02-26T01:04:48;93890.75;;;8.89;100.00
6345;BME280;3205;42.666;23.264;2024-02-26T01:07:14;93882.75;;;8.86;100.00
6345;BME280;3205;42.666;23.264;2024-02-26T01:09:40;93878.34;;;8.90;100.00
6345;BME280;3205;42.666;23.264;2024-02-26T01:12:06;93880.31;;;8.93;100.00
6345;BME280;3205;42.666;23.264;2024-02-26T01:14:33;93889.06;;;8.97;100.00
6345;BME280;3205;42.666;23.264;2024-02-26T01:16:59;93884.59;;;8.97;100.00
6345;BME280;3205;42.666;23.264;2024-02-26T01:19:26;93890.97;;;8.96;100.00
6345;BME280;3205;42.666;23.264;2024-02-26T01:21:53;93880.06;;;8.98;100.00
6345;BME280;3205;42.666;23.264;2024-02-26T01:24:19;93885.16;;;8.91;100.00
6345;BME280;3205;42.666;23.264;2024-02-26T01:26:45;93884.81;;;8.92;100.00
6345;BME280;3205;42.666;23.264;2024-02-26T01:29:12;93882.38;;;8.99;100.00
6345;BME280;3205;42.666;23.264;2024-02-26T01:31:38;93887.53;;;8.96;100.00
6345;BME280;3205;42.666;23.264;2024-02-26T01:34:04;93877.34;;;8.94;100.00
6345;BME280;3205;42.666;23.264;2024-02-26T01:36:31;93872.41;;;8.93;100.00
6345;BME280;3205;42.666;23.264;2024-02-26T01:38:57;93882.25;;;8.96;100.00
6345;BME280;3205;42.666;23.264;2024-02-26T01:41:24;93874.69;;;8.94;100.00
6345;BME280;3205;42.666;23.264;2024-02-26T01:43:50;93869.97;;;9.00;100.00
6345;BME280;3205;42.666;23.264;2024-02-26T01:46:17;93873.13;;;9.05;100.00
6345;BME280;3205;42.666;23.264;2024-02-26T01:48:45;93873.66;;;9.11;100.00
6345;BME280;3205;42.666;23.264;2024-02-26T01:51:15;93874.09;;;9.13;100.00
6345;BME280;3205;42.666;23.264;2024-02-26T01:53:43;93865.75;;;9.11;100.00
6345;BME280;3205;42.666;23.264;2024-02-26T01:56:11;93866.28;;;9.16;100.00
6345;BME280;3205;42.666;23.264;2024-02-26T01:58:38;93868.81;;;9.13;100.00
6345;BME280;3205;42.666;23.264;2024-02-26T02:01:05;93871.91;;;9.15;100.00
6345;BME280;3205;42.666;23.264;2024-02-26T02:03:31;93866.84;;;9.10;100.00
6345;BME280;3205;42.666;23.264;2024-02-26T02:05:57;93857.75;;;9.07;100.00
6345;BME280;3205;42.666;23.264;2024-02-26T02:08:23;93862.25;;;9.07;100.00
6345;BME280;3205;42.666;23.264;2024-02-26T02:10:50;93863.56;;;9.13;100.00
6345;BME280;3205;42.666;23.264;2024-02-26T02:13:17;93863.41;;;9.21;100.00
6345;BME280;3205;42.666;23.264;2024-02-26T02:15:43;93864.09;;;9.18;100.00
6345;BME280;3205;42.666;23.264;2024-02-26T02:18:10;93867.13;;;9.20;100.00
6345;BME280;3205;42.666;23.264;2024-02-26T02:20:37;93861.00;;;9.16;100.00
6345;BME280;3205;42.666;23.264;2024-02-26T02:23:03;93853.34;;;9.11;100.00
6345;BME280;3205;42.666;23.264;2024-02-26T02:25:30;93860.47;;;9.11;100.00
6345;BME280;3205;42.666;23.264;2024-02-26T02:27:56;93857.94;;;9.14;100.00
6345;BME280;3205;42.666;23.264;2024-02-26T02:30:25;93852.84;;;9.21;100.00
6345;BME280;3205;42.666;23.264;2024-02-26T02:32:53;93846.03;;;9.20;100.00
6345;BME280;3205;42.666;23.264;2024-02-26T02:35:20;93852.38;;;9.31;100.00
6345;BME280;3205;42.666;23.264;2024-02-26T02:37:47;93847.69;;;9.25;100.00
6345;BME280;3205;42.666;23.264;2024-02-26T02:40:13;93860.22;;;9.16;100.00
6345;BME280;3205;42.666;23.264;2024-02-26T02:42:39;93869.69;;;9.17;100.00
6345;BME280;3205;42.666;23.264;2024-02-26T02:45:06;93862.31;;;9.22;100.00
6345;BME280;3205;42.666;23.264;2024-02-26T02:47:36;93858.66;;;9.27;100.00
6345;BME280;3205;42.666;23.264;2024-02-26T02:50:02;93858.81;;;9.18;100.00
6345;BME280;3205;42.666;23.264;2024-02-26T02:52:29;93867.72;;;9.14;100.00
6345;BME280;3205;42.666;23.264;2024-02-26T02:54:55;93873.84;;;9.18;100.00
6345;BME280;3205;42.666;23.264;2024-02-26T02:57:22;93877.69;;;9.20;100.00
6345;BME280;3205;42.666;23.264;2024-02-26T02:59:48;93877.03;;;9.23;100.00
6345;BME280;3205;42.666;23.264;2024-02-26T03:05:38;93865.38;;;9.24;100.00
6345;BME280;3205;42.666;23.264;2024-02-26T03:08:05;93869.47;;;9.22;100.00
6345;BME280;3205;42.666;23.264;2024-02-26T03:10:32;93876.78;;;9.28;100.00
6345;BME280;3205;42.666;23.264;2024-02-26T03:12:58;93876.78;;;9.28;100.00
6345;BME280;3205;42.666;23.264;2024-02-26T03:15:25;93878.22;;;9.26;100.00
6345;BME280;3205;42.666;23.264;2024-02-26T03:17:51;93863.59;;;9.28;100.00
6345;BME280;3205;42.666;23.264;2024-02-26T03:20:17;93862.50;;;9.29;100.00
6345;BME280;3205;42.666;23.264;2024-02-26T03:22:45;93870.84;;;9.31;100.00
6345;BME280;3205;42.666;23.264;2024-02-26T03:25:11;93864.88;;;9.34;100.00
6345;BME280;3205;42.666;23.264;2024-02-26T03:27:38;93851.78;;;9.38;100.00
6345;BME280;3205;42.666;23.264;2024-02-26T03:30:06;93855.88;;;9.35;100.00
6345;BME280;3205;42.666;23.264;2024-02-26T03:32:32;93849.22;;;9.26;100.00
6345;BME280;3205;42.666;23.264;2024-02-26T03:34:58;93837.03;;;9.21;100.00
6345;BME280;3205;42.666;23.264;2024-02-26T03:37:25;93846.38;;;9.19;100.00
6345;BME280;3205;42.666;23.264;2024-02-26T03:39:51;93851.13;;;9.13;100.00
6345;BME280;3205;42.666;23.264;2024-02-26T03:42:17;93843.91;;;9.10;100.00
6345;BME280;3205;42.666;23.264;2024-02-26T03:44:45;93842.81;;;9.11;100.00
6345;BME280;3205;42.666;23.264;2024-02-26T03:47:11;93844.22;;;9.09;100.00
6345;BME280;3205;42.666;23.264;2024-02-26T03:49:38;93837.75;;;9.06;100.00
6345;BME280;3205;42.666;23.264;2024-02-26T03:52:04;93837.75;;;9.06;100.00
6345;BME280;3205;42.666;23.264;2024-02-26T03:54:31;93834.72;;;9.04;100.00
6345;BME280;3205;42.666;23.264;2024-02-26T03:56:57;93840.06;;;9.08;100.00
6345;BME280;3205;42.666;23.264;2024-02-26T03:59:23;93844.00;;;9.14;100.00
6345;BME280;3205;42.666;23.264;2024-02-26T04:01:51;93841.38;;;9.14;100.00
6345;BME280;3205;42.666;23.264;2024-02-26T04:04:17;93835.56;;;9.08;100.00
6345;BME280;3205;42.666;23.264;2024-02-26T04:06:44;93831.81;;;9.09;100.00
6345;BME280;3205;42.666;23.264;2024-02-26T04:09:11;93826.09;;;9.07;100.00
6345;BME280;3205;42.666;23.264;2024-02-26T04:11:37;93829.19;;;9.09;100.00
6345;BME280;3205;42.666;23.264;2024-02-26T04:14:03;93836.00;;;9.10;100.00
6345;BME280;3205;42.666;23.264;2024-02-26T04:16:31;93833.00;;;9.12;100.00
6345;BME280;3205;42.666;23.264;2024-02-26T04:18:58;93827.94;;;9.19;100.00
6345;BME280;3205;42.666;23.264;2024-02-26T04:21:24;93812.03;;;9.15;100.00
6345;BME280;3205;42.666;23.264;2024-02-26T04:23:50;93823.41;;;9.19;100.00
6345;BME280;3205;42.666;23.264;2024-02-26T04:26:20;93820.03;;;9.19;100.00
6345;BME280;3205;42.666;23.264;2024-02-26T04:28:46;93826.59;;;9.25;100.00
6345;BME280;3205;42.666;23.264;2024-02-26T04:31:15;93818.84;;;9.32;100.00
6345;BME280;3205;42.666;23.264;2024-02-26T04:33:41;93813.75;;;9.23;100.00
6345;BME280;3205;42.666;23.264;2024-02-26T04:36:13;93817.31;;;9.31;100.00
6345;BME280;3205;42.666;23.264;2024-02-26T04:38:39;93818.66;;;9.25;100.00
6345;BME280;3205;42.666;23.264;2024-02-26T04:41:05;93822.84;;;9.26;100.00
6345;BME280;3205;42.666;23.264;2024-02-26T04:43:31;93822.66;;;9.19;100.00
6345;BME280;3205;42.666;23.264;2024-02-26T04:45:58;93823.75;;;9.18;100.00
6345;BME280;3205;42.666;23.264;2024-02-26T04:48:24;93823.31;;;9.16;100.00
6345;BME280;3205;42.666;23.264;2024-02-26T04:50:50;93826.75;;;9.16;100.00
6345;BME280;3205;42.666;23.264;2024-02-26T04:53:17;93828.28;;;9.17;100.00
6345;BME280;3205;42.666;23.264;2024-02-26T04:58:28;93839.03;;;9.12;100.00
6345;BME280;3205;42.666;23.264;2024-02-26T05:00:55;93839.81;;;9.13;100.00
6345;BME280;3205;42.666;23.264;2024-02-26T05:03:21;93831.91;;;9.13;100.00
6345;BME280;3205;42.666;23.264;2024-02-26T05:05:48;93846.63;;;9.14;100.00
6345;BME280;3205;42.666;23.264;2024-02-26T05:08:14;93856.41;;;9.13;100.00
6345;BME280;3205;42.666;23.264;2024-02-26T05:10:41;93850.13;;;9.18;100.00
6345;BME280;3205;42.666;23.264;2024-02-26T05:13:09;93854.97;;;9.16;100.00
6345;BME280;3205;42.666;23.264;2024-02-26T05:15:35;93851.22;;;9.17;100.00
6345;BME280;3205;42.666;23.264;2024-02-26T05:18:02;93862.56;;;9.17;100.00
6345;BME280;3205;42.666;23.264;2024-02-26T05:20:28;93868.69;;;9.21;100.00
6345;BME280;3205;42.666;23.264;2024-02-26T05:22:54;93872.84;;;9.22;100.00
6345;BME280;3205;42.666;23.264;2024-02-26T05:25:21;93872.59;;;9.27;100.00
6345;BME280;3205;42.666;23.264;2024-02-26T05:27:48;93876.53;;;9.33;100.00
6345;BME280;3205;42.666;23.264;2024-02-26T05:30:14;93871.59;;;9.32;100.00
6345;BME280;3205;42.666;23.264;2024-02-26T05:32:41;93879.75;;;9.27;100.00
6345;BME280;3205;42.666;23.264;2024-02-26T05:35:08;93881.81;;;9.33;100.00
6345;BME280;3205;42.666;23.264;2024-02-26T05:37:34;93888.72;;;9.38;100.00
6345;BME280;3205;42.666;23.264;2024-02-26T05:40:00;93884.53;;;9.37;100.00
6345;BME280;3205;42.666;23.264;2024-02-26T05:42:26;93884.06;;;9.47;100.00
6345;BME280;3205;42.666;23.264;2024-02-26T05:44:53;93888.09;;;9.56;100.00
6345;BME280;3205;42.666;23.264;2024-02-26T05:47:20;93889.16;;;9.40;100.00
6345;BME280;3205;42.666;23.264;2024-02-26T05:49:46;93896.97;;;9.36;100.00
6345;BME280;3205;42.666;23.264;2024-02-26T05:52:12;93887.72;;;9.42;100.00
6345;BME280;3205;42.666;23.264;2024-02-26T05:54:38;93886.81;;;9.50;100.00
6345;BME280;3205;42.666;23.264;2024-02-26T05:57:05;93896.34;;;9.55;100.00
6345;BME280;3205;42.666;23.264;2024-02-26T05:59:31;93889.28;;;9.58;100.00
6345;BME280;3205;42.666;23.264;2024-02-26T06:01:58;93891.53;;;9.72;100.00
6345;BME280;3205;42.666;23.264;2024-02-26T06:04:25;93901.91;;;9.65;100.00
6345;BME280;3205;42.666;23.264;2024-02-26T06:06:51;93902.41;;;9.70;100.00
6345;BME280;3205;42.666;23.264;2024-02-26T06:09:17;93897.91;;;9.71;100.00
6345;BME280;3205;42.666;23.264;2024-02-26T06:11:44;93896.03;;;9.87;100.00
6345;BME280;3205;42.666;23.264;2024-02-26T06:14:10;93902.50;;;10.01;100.00
6345;BME280;3205;42.666;23.264;2024-02-26T06:16:38;93908.50;;;9.86;100.00
6345;BME280;3205;42.666;23.264;2024-02-26T06:19:05;93908.13;;;9.88;100.00
6345;BME280;3205;42.666;23.264;2024-02-26T06:21:32;93905.75;;;9.83;100.00
6345;BME280;3205;42.666;23.264;2024-02-26T06:23:59;93903.97;;;9.87;100.00
6345;BME280;3205;42.666;23.264;2024-02-26T06:26:25;93901.84;;;9.92;100.00
6345;BME280;3205;42.666;23.264;2024-02-26T06:28:54;93904.25;;;9.97;100.00
6345;BME280;3205;42.666;23.264;2024-02-26T06:31:21;93899.16;;;10.04;100.00
6345;BME280;3205;42.666;23.264;2024-02-26T06:33:48;93907.00;;;10.01;100.00
6345;BME280;3205;42.666;23.264;2024-02-26T06:36:15;93906.16;;;10.12;100.00
6345;BME280;3205;42.666;23.264;2024-02-26T06:38:42;93903.50;;;10.12;100.00
6345;BME280;3205;42.666;23.264;2024-02-26T06:41:08;93903.34;;;10.21;100.00
6345;BME280;3205;42.666;23.264;2024-02-26T06:43:35;93910.84;;;10.19;100.00
6345;BME280;3205;42.666;23.264;2024-02-26T06:46:01;93904.28;;;10.13;100.00
6345;BME280;3205;42.666;23.264;2024-02-26T06:48:27;93908.22;;;10.19;100.00
6345;BME280;3205;42.666;23.264;2024-02-26T06:50:56;93909.13;;;10.26;100.00
6345;BME280;3205;42.666;23.264;2024-02-26T06:53:23;93909.84;;;10.23;100.00
6345;BME280;3205;42.666;23.264;2024-02-26T06:55:49;93906.22;;;10.31;100.00
6345;BME280;3205;42.666;23.264;2024-02-26T06:58:16;93912.19;;;10.43;100.00
6345;BME280;3205;42.666;23.264;2024-02-26T07:00:42;93909.13;;;10.57;100.00
6345;BME280;3205;42.666;23.264;2024-02-26T07:03:08;93922.16;;;10.65;100.00
6345;BME280;3205;42.666;23.264;2024-02-26T07:05:34;93905.00;;;10.75;100.00
6345;BME280;3205;42.666;23.264;2024-02-26T07:08:01;93911.47;;;10.77;100.00
6345;BME280;3205;42.666;23.264;2024-02-26T07:10:28;93912.66;;;10.80;100.00
6345;BME280;3205;42.666;23.264;2024-02-26T07:12:54;93917.78;;;10.73;100.00
6345;BME280;3205;42.666;23.264;2024-02-26T07:15:20;93930.69;;;10.74;100.00
6345;BME280;3205;42.666;23.264;2024-02-26T07:17:46;93929.38;;;10.68;100.00
6345;BME280;3205;42.666;23.264;2024-02-26T07:20:14;93933.47;;;10.66;100.00
6345;BME280;3205;42.666;23.264;2024-02-26T07:22:41;93936.91;;;10.66;100.00
6345;BME280;3205;42.666;23.264;2024-02-26T07:25:08;93933.72;;;10.76;100.00
6345;BME280;3205;42.666;23.264;2024-02-26T07:27:39;93937.63;;;10.82;100.00
6345;BME280;3205;42.666;23.264;2024-02-26T07:30:07;93932.78;;;10.84;100.00
6345;BME280;3205;42.666;23.264;2024-02-26T07:32:34;93926.81;;;10.87;100.00
6345;BME280;3205;42.666;23.264;2024-02-26T07:35:02;93929.56;;;11.09;100.00
6345;BME280;3205;42.666;23.264;2024-02-26T07:37:28;93933.13;;;11.17;100.00
6345;BME280;3205;42.666;23.264;2024-02-26T07:39:54;93937.06;;;11.42;100.00
6345;BME280;3205;42.666;23.264;2024-02-26T07:42:21;93953.66;;;11.58;100.00
6345;BME280;3205;42.666;23.264;2024-02-26T07:44:48;93941.06;;;11.70;100.00
6345;BME280;3205;42.666;23.264;2024-02-26T07:47:14;93935.66;;;11.85;100.00
6345;BME280;3205;42.666;23.264;2024-02-26T07:49:40;93941.94;;;11.96;100.00
6345;BME280;3205;42.666;23.264;2024-02-26T07:52:07;93943.94;;;12.03;100.00
6345;BME280;3205;42.666;23.264;2024-02-26T07:54:33;93941.91;;;12.15;100.00
6345;BME280;3205;42.666;23.264;2024-02-26T07:56:59;93949.44;;;12.36;100.00
6345;BME280;3205;42.666;23.264;2024-02-26T07:59:26;93941.25;;;12.66;100.00
6345;BME280;3205;42.666;23.264;2024-02-26T08:01:53;93947.78;;;12.95;100.00
6345;BME280;3205;42.666;23.264;2024-02-26T08:04:20;93950.94;;;13.04;100.00
6345;BME280;3205;42.666;23.264;2024-02-26T08:06:46;93947.38;;;13.19;100.00
6345;BME280;3205;42.666;23.264;2024-02-26T08:09:12;93946.31;;;13.27;100.00
6345;BME280;3205;42.666;23.264;2024-02-26T08:11:38;93944.09;;;13.29;100.00
6345;BME280;3205;42.666;23.264;2024-02-26T08:14:05;93945.88;;;13.21;100.00
6345;BME280;3205;42.666;23.264;2024-02-26T08:16:31;93945.63;;;13.30;100.00
6345;BME280;3205;42.666;23.264;2024-02-26T08:18:58;93935.75;;;13.30;100.00
6345;BME280;3205;42.666;23.264;2024-02-26T08:21:24;93944.81;;;13.26;100.00
6345;BME280;3205;42.666;23.264;2024-02-26T08:23:50;93936.28;;;13.13;100.00
6345;BME280;3205;42.666;23.264;2024-02-26T08:26:17;93941.69;;;13.20;100.00
6345;BME280;3205;42.666;23.264;2024-02-26T08:28:46;93948.06;;;13.16;100.00
6345;BME280;3205;42.666;23.264;2024-02-26T08:31:13;93933.06;;;13.27;100.00
6345;BME280;3205;42.666;23.264;2024-02-26T08:33:39;93939.63;;;13.36;100.00
6345;BME280;3205;42.666;23.264;2024-02-26T08:36:07;93943.38;;;13.61;100.00
6345;BME280;3205;42.666;23.264;2024-02-26T08:38:33;93946.91;;;13.72;100.00
6345;BME280;3205;42.666;23.264;2024-02-26T08:41:01;93948.47;;;13.76;100.00
6345;BME280;3205;42.666;23.264;2024-02-26T08:43:27;93940.13;;;14.07;100.00
6345;BME280;3205;42.666;23.264;2024-02-26T08:45:53;93953.75;;;14.06;100.00
6345;BME280;3205;42.666;23.264;2024-02-26T08:48:20;93940.00;;;13.97;100.00
6345;BME280;3205;42.666;23.264;2024-02-26T08:50:46;93939.88;;;14.19;100.00
6345;BME280;3205;42.666;23.264;2024-02-26T08:53:13;93949.53;;;14.34;100.00
6345;BME280;3205;42.666;23.264;2024-02-26T08:55:39;93949.66;;;14.51;100.00
6345;BME280;3205;42.666;23.264;2024-02-26T08:58:05;93945.31;;;14.73;100.00
6345;BME280;3205;42.666;23.264;2024-02-26T09:00:32;93948.75;;;14.77;100.00
6345;BME280;3205;42.666;23.264;2024-02-26T09:02:58;93939.94;;;14.66;100.00
6345;BME280;3205;42.666;23.264;2024-02-26T09:05:25;93936.44;;;14.58;100.00
6345;BME280;3205;42.666;23.264;2024-02-26T09:07:51;93938.91;;;14.81;100.00
6345;BME280;3205;42.666;23.264;2024-02-26T09:10:18;93937.53;;;14.97;100.00
6345;BME280;3205;42.666;23.264;2024-02-26T09:12:45;93933.81;;;15.12;100.00
6345;BME280;3205;42.666;23.264;2024-02-26T09:15:11;93932.03;;;15.26;100.00
6345;BME280;3205;42.666;23.264;2024-02-26T09:17:38;93935.56;;;15.48;100.00
6345;BME280;3205;42.666;23.264;2024-02-26T09:20:05;93935.31;;;15.09;100.00
6345;BME280;3205;42.666;23.264;2024-02-26T09:22:34;93936.41;;;15.01;100.00
6345;BME280;3205;42.666;23.264;2024-02-26T09:25:04;93935.91;;;14.85;100.00
6345;BME280;3205;42.666;23.264;2024-02-26T09:27:31;93940.53;;;14.95;100.00
6345;BME280;3205;42.666;23.264;2024-02-26T09:29:58;93943.34;;;15.16;100.00
6345;BME280;3205;42.666;23.264;2024-02-26T09:32:24;93935.56;;;15.48;100.00
6345;BME280;3205;42.666;23.264;2024-02-26T09:34:50;93932.22;;;15.64;100.00
6345;BME280;3205;42.666;23.264;2024-02-26T09:37:17;93934.59;;;15.87;100.00
6345;BME280;3205;42.666;23.264;2024-02-26T09:39:43;93932.00;;;16.01;100.00
6345;BME280;3205;42.666;23.264;2024-02-26T09:42:12;93931.28;;;16.25;100.00
6345;BME280;3205;42.666;23.264;2024-02-26T09:44:40;93924.50;;;16.55;100.00
6345;BME280;3205;42.666;23.264;2024-02-26T09:47:09;93922.22;;;16.53;100.00
6345;BME280;3205;42.666;23.264;2024-02-26T09:49:37;93916.50;;;16.38;100.00
6345;BME280;3205;42.666;23.264;2024-02-26T09:52:04;93923.00;;;16.71;100.00
6345;BME280;3205;42.666;23.264;2024-02-26T09:54:31;93921.41;;;17.26;100.00
6345;BME280;3205;42.666;23.264;2024-02-26T09:57:00;93921.06;;;17.17;100.00
6345;BME280;3205;42.666;23.264;2024-02-26T09:59:29;93919.44;;;16.12;100.00
6345;BME280;3205;42.666;23.264;2024-02-26T10:02:03;93913.34;;;16.11;100.00
6345;BME280;3205;42.666;23.264;2024-02-26T10:04:29;93917.84;;;15.79;100.00
6345;BME280;3205;42.666;23.264;2024-02-26T10:06:57;93906.31;;;15.61;100.00
6345;BME280;3205;42.666;23.264;2024-02-26T10:09:27;93912.09;;;15.74;100.00
6345;BME280;3205;42.666;23.264;2024-02-26T10:11:53;93907.97;;;15.97;100.00
6345;BME280;3205;42.666;23.264;2024-02-26T10:14:20;93904.28;;;16.30;100.00
6345;BME280;3205;42.666;23.264;2024-02-26T10:16:49;93896.31;;;16.47;100.00
6345;BME280;3205;42.666;23.264;2024-02-26T10:19:25;93891.72;;;16.44;100.00
6345;BME280;3205;42.666;23.264;2024-02-26T10:21:56;93898.84;;;15.95;100.00
6345;BME280;3205;42.666;23.264;2024-02-26T10:24:22;93888.44;;;15.59;100.00
6345;BME280;3205;42.666;23.264;2024-02-26T10:26:49;93880.28;;;15.24;100.00
6345;BME280;3205;42.666;23.264;2024-02-26T10:29:18;93888.09;;;15.67;100.00
6345;BME280;3205;42.666;23.264;2024-02-26T10:31:45;93881.56;;;15.54;100.00
6345;BME280;3205;42.666;23.264;2024-02-26T10:34:11;93879.34;;;15.77;100.00
6345;BME280;3205;42.666;23.264;2024-02-26T10:36:38;93870.59;;;15.73;100.00
6345;BME280;3205;42.666;23.264;2024-02-26T10:39:06;93871.34;;;15.63;100.00
6345;BME280;3205;42.666;23.264;2024-02-26T10:41:33;93873.28;;;15.02;100.00
6345;BME280;3205;42.666;23.264;2024-02-26T10:43:59;93866.59;;;15.25;100.00
6345;BME280;3205;42.666;23.264;2024-02-26T10:46:26;93865.97;;;15.56;100.00
6345;BME280;3205;42.666;23.264;2024-02-26T10:48:53;93862.03;;;15.29;100.00
6345;BME280;3205;42.666;23.264;2024-02-26T10:51:22;93856.81;;;15.54;100.00
6345;BME280;3205;42.666;23.264;2024-02-26T10:53:54;93855.34;;;15.60;100.00
6345;BME280;3205;42.666;23.264;2024-02-26T10:56:24;93857.69;;;15.82;100.00
6345;BME280;3205;42.666;23.264;2024-02-26T10:58:53;93855.38;;;15.77;100.00
6345;BME280;3205;42.666;23.264;2024-02-26T11:01:19;93850.06;;;15.84;100.00
6345;BME280;3205;42.666;23.264;2024-02-26T11:03:48;93847.81;;;15.96;100.00
6345;BME280;3205;42.666;23.264;2024-02-26T11:06:16;93844.84;;;16.39;100.00
6345;BME280;3205;42.666;23.264;2024-02-26T11:08:43;93849.41;;;16.70;100.00
6345;BME280;3205;42.666;23.264;2024-02-26T11:11:11;93858.78;;;15.70;100.00
6345;BME280;3205;42.666;23.264;2024-02-26T11:13:42;93848.56;;;15.90;100.00
6345;BME280;3205;42.666;23.264;2024-02-26T11:16:11;93859.09;;;15.45;100.00
6345;BME280;3205;42.666;23.264;2024-02-26T11:18:40;93845.84;;;14.87;100.00
6345;BME280;3205;42.666;23.264;2024-02-26T11:21:07;93849.69;;;14.97;100.00
6345;BME280;3205;42.666;23.264;2024-02-26T11:23:34;93842.00;;;14.88;100.00
6345;BME280;3205;42.666;23.264;2024-02-26T11:26:04;93845.13;;;14.97;100.00
6345;BME280;3205;42.666;23.264;2024-02-26T11:28:33;93847.41;;;15.02;100.00
6345;BME280;3205;42.666;23.264;2024-02-26T11:31:01;93843.03;;;15.31;100.00
6345;BME280;3205;42.666;23.264;2024-02-26T11:33:30;93839.56;;;15.23;100.00
6345;BME280;3205;42.666;23.264;2024-02-26T11:35:56;93833.97;;;15.42;100.00
6345;BME280;3205;42.666;23.264;2024-02-26T11:38:26;93832.41;;;15.34;100.00
6345;BME280;3205;42.666;23.264;2024-02-26T11:40:53;93829.25;;;15.15;100.00
6345;BME280;3205;42.666;23.264;2024-02-26T11:43:23;93836.16;;;15.26;100.00
6345;BME280;3205;42.666;23.264;2024-02-26T11:46:24;93835.50;;;15.50;100.00
6345;BME280;3205;42.666;23.264;2024-02-26T11:48:51;93833.91;;;15.25;100.00
6345;BME280;3205;42.666;23.264;2024-02-26T11:51:17;93822.50;;;15.35;100.00
6345;BME280;3205;42.666;23.264;2024-02-26T11:53:46;93822.91;;;15.40;100.00
6345;BME280;3205;42.666;23.264;2024-02-26T11:56:20;93813.41;;;15.46;100.00
6345;BME280;3205;42.666;23.264;2024-02-26T11:58:47;93827.25;;;16.00;100.00
6345;BME280;3205;42.666;23.264;2024-02-26T12:01:40;93836.31;;;15.68;100.00
6345;BME280;3205;42.666;23.264;2024-02-26T12:04:11;93827.13;;;15.45;100.00
6345;BME280;3205;42.666;23.264;2024-02-26T12:06:55;93852.09;;;15.19;100.00
6345;BME280;3205;42.666;23.264;2024-02-26T12:09:32;93844.91;;;15.23;100.00
6345;BME280;3205;42.666;23.264;2024-02-26T12:11:59;93839.88;;;15.15;100.00
6345;BME280;3205;42.666;23.264;2024-02-26T12:14:27;93833.03;;;15.14;100.00
6345;BME280;3205;42.666;23.264;2024-02-26T12:16:55;93833.16;;;15.31;100.00
6345;BME280;3205;42.666;23.264;2024-02-26T12:19:23;93830.47;;;15.31;100.00
6345;BME280;3205;42.666;23.264;2024-02-26T12:21:51;93838.91;;;15.40;100.00
6345;BME280;3205;42.666;23.264;2024-02-26T12:24:18;93835.34;;;15.19;100.00
6345;BME280;3205;42.666;23.264;2024-02-26T12:26:45;93831.72;;;15.58;100.00
6345;BME280;3205;42.666;23.264;2024-02-26T12:29:12;93834.75;;;15.50;100.00
6345;BME280;3205;42.666;23.264;2024-02-26T12:31:39;93857.97;;;15.53;100.00
6345;BME280;3205;42.666;23.264;2024-02-26T12:34:07;93845.09;;;15.72;100.00
6345;BME280;3205;42.666;23.264;2024-02-26T12:36:35;93849.34;;;16.01;100.00
6345;BME280;3205;42.666;23.264;2024-02-26T12:39:02;93860.41;;;16.06;100.00
6345;BME280;3205;42.666;23.264;2024-02-26T12:41:31;93847.44;;;16.08;100.00
6345;BME280;3205;42.666;23.264;2024-02-26T12:43:58;93848.63;;;16.32;100.00
6345;BME280;3205;42.666;23.264;2024-02-26T12:46:24;93846.31;;;16.16;100.00
6345;BME280;3205;42.666;23.264;2024-02-26T12:48:51;93840.59;;;16.11;100.00
6345;BME280;3205;42.666;23.264;2024-02-26T12:51:18;93840.22;;;16.23;99.76
6345;BME280;3205;42.666;23.264;2024-02-26T12:53:45;93839.44;;;16.12;100.00
6345;BME280;3205;42.666;23.264;2024-02-26T12:56:12;93836.03;;;16.08;100.00
6345;BME280;3205;42.666;23.264;2024-02-26T12:58:39;93850.84;;;15.84;100.00
6345;BME280;3205;42.666;23.264;2024-02-26T13:01:06;93847.03;;;15.82;100.00
6345;BME280;3205;42.666;23.264;2024-02-26T13:03:34;93839.06;;;15.92;100.00
6345;BME280;3205;42.666;23.264;2024-02-26T13:06:01;93837.16;;;16.03;100.00
6345;BME280;3205;42.666;23.264;2024-02-26T13:08:28;93839.09;;;16.27;100.00
6345;BME280;3205;42.666;23.264;2024-02-26T13:10:55;93837.59;;;16.43;95.78